WetterOnline ( https://www.wetteronline.de )

Wetter aktuell Gelting

Aktuelles Wetter: Schönhagen (Ostseebad) (2m)

6-stündlich | Neueste Meldungen
Ortszeit Temperatur Wetter
Fr, 27.11. 7:00 2.0° C bedeckt
Fr, 27.11. 1:00 2.1° C Nebel
Do, 26.11. 19:00 4.3° C wolkenlos
Do, 26.11. 13:00 9.8° C wolkenlos
Do, 26.11. 7:00 7.0° C Sprühregen
Do, 26.11. 1:00 5.9° C bedeckt
Mi, 25.11. 19:00 4.5° C wolkig
Mi, 25.11. 13:00 6.3° C leicht bewölkt
Ortszeit Temperatur Wetter
Fr, 27.11. 7:30 2.0° C bedeckt
Fr, 27.11. 7:20 2.0° C bedeckt
Fr, 27.11. 7:10 2.4° C bedeckt
Fr, 27.11. 7:00 2.0° C bedeckt
Fr, 27.11. 6:50 2.0° C bedeckt
Fr, 27.11. 6:40 1.9° C bedeckt
Fr, 27.11. 6:30 1.9° C bedeckt
Fr, 27.11. 6:00 1.1° C bedeckt
Ortszeit Relative Feuchte Sichtweite
Fr, 27.11. 7:00 100% 5.0 km
Fr, 27.11. 1:00 100% 0.3 km
Do, 26.11. 19:00 97% 29 km
Do, 26.11. 13:00 79% 55 km
Do, 26.11. 7:00 99% 1.4 km
Do, 26.11. 1:00 92% 10 km
Mi, 25.11. 19:00 92% 11 km
Mi, 25.11. 13:00 83% 24 km
Ortszeit Relative Feuchte Sichtweite
Fr, 27.11. 7:30 100% 3.1 km
Fr, 27.11. 7:20 100% -
Fr, 27.11. 7:10 100% -
Fr, 27.11. 7:00 100% 5.0 km
Fr, 27.11. 6:50 100% -
Fr, 27.11. 6:40 100% -
Fr, 27.11. 6:30 100% 6 km
Fr, 27.11. 6:00 100% 5.0 km
Ortszeit Niederschlagsmenge Niederschlagsart
Fr, 27.11. 7:00 0.0 l/m2 in 12 Std. -
Fr, 27.11. 1:00 0.0 l/m2 in 6 Std. -
Do, 26.11. 19:00 0.6 l/m2 in 12 Std. -
Do, 26.11. 13:00 0.6 l/m2 in 6 Std. Regen
Do, 26.11. 7:00 0.1 l/m2 in 12 Std. Sprühregen
Do, 26.11. 1:00 0.0 l/m2 in 6 Std. -
Mi, 25.11. 19:00 0.0 l/m2 in 12 Std. -
Mi, 25.11. 13:00 0.0 l/m2 in 6 Std. -
Ortszeit Niederschlagsmenge Niederschlagsart
Fr, 27.11. 7:30 0.0 l/m2 in 1 Std. -
Fr, 27.11. 7:20 keine Meldung -
Fr, 27.11. 7:10 keine Meldung -
Fr, 27.11. 7:00 0.0 l/m2 in 1 Std. -
Fr, 27.11. 6:50 keine Meldung -
Fr, 27.11. 6:40 keine Meldung -
Fr, 27.11. 6:30 0.0 l/m2 in 1 Std. -
Fr, 27.11. 6:00 0.0 l/m2 in 1 Std. -
Ortszeit Stärke Spitze Richtung
km/h Bft. km/h Grad Sektor
Fr, 27.11. 7:00 7 2 22 270° W
Fr, 27.11. 1:00 11 2 18 250° W
Do, 26.11. 19:00 11 2 25 250° W
Do, 26.11. 13:00 18 3 29 280° W
Do, 26.11. 7:00 22 4 29 220° SW
Do, 26.11. 1:00 15 3 26 210° SW
Mi, 25.11. 19:00 13 3 28 200° S
Mi, 25.11. 13:00 20 4 31 210° SW
Ortszeit Stärke Spitze Richtung
km/h Bft. km/h Grad Sektor
Fr, 27.11. 7:30 7 2 11 270° W
Fr, 27.11. 7:20 7 2 - 270° W
Fr, 27.11. 7:10 6 1 - 260° W
Fr, 27.11. 7:00 7 2 11 270° W
Fr, 27.11. 6:50 7 2 - 270° W
Fr, 27.11. 6:40 7 2 - 270° W
Fr, 27.11. 6:30 6 1 11 260° W
Fr, 27.11. 6:00 7 2 11 280° W
Ortszeit Untergrenze Bedeckung Gattung
total tief tief mittel hoch
Fr, 27.11. 7:00 1170 m 8/8 8/8 - - -
Fr, 27.11. 1:00 - 0/8 0/8 - - -
Do, 26.11. 19:00 - 0/8 0/8 - - -
Do, 26.11. 13:00 630 m 0/8 0/8 - - -
Do, 26.11. 7:00 60 m 7/8 7/8 - - -
Do, 26.11. 1:00 330 m 8/8 8/8 - - -
Mi, 25.11. 19:00 5700 m 7/8 4/8 - - -
Mi, 25.11. 13:00 5400 m 4/8 5/8 - - -
Ortszeit Bedeckungsgrad in Achtel und Wolkenuntergrenze
Fr, 27.11. 7:30 8(1170m)
Fr, 27.11. 7:20 8(1170m)
Fr, 27.11. 7:10 8(1170m)
Fr, 27.11. 7:00 8(1170m)
Fr, 27.11. 6:50 8(1170m)
Fr, 27.11. 6:40 8(1170m)
Fr, 27.11. 6:30 8(1200m)
Fr, 27.11. 6:00 8(1170m)
Ortszeit Luftdruck NN (hPa) Tendenz (hPa in 3 Std.)
Fr, 27.11. 7:00 1021 + 0,3
Fr, 27.11. 1:00 1021 + 0,7
Do, 26.11. 19:00 1019 + 0,9
Do, 26.11. 13:00 1018 + 0,9
Do, 26.11. 7:00 1016 - 0,2
Do, 26.11. 1:00 1017 + 0,2
Mi, 25.11. 19:00 1016 + 0,4
Mi, 25.11. 13:00 1016 - 0,8
Ortszeit Luftdruck NN (hPa) Tendenz (hPa in 3 Std.)
Fr, 27.11. 7:30 1022 + 0,6
Fr, 27.11. 7:20 1022 keine Meldung
Fr, 27.11. 7:10 1022 keine Meldung
Fr, 27.11. 7:00 1021 + 0,3
Fr, 27.11. 6:50 1021 keine Meldung
Fr, 27.11. 6:40 1021 keine Meldung
Fr, 27.11. 6:30 1021 + 0,3
Fr, 27.11. 6:00 1021 + 0,2
Ortszeit Schneehöhe (cm)
Fr, 27.11. 7:00 0
Fr, 27.11. 1:00 0
Do, 26.11. 19:00 0
Do, 26.11. 13:00 0
Do, 26.11. 7:00 0
Do, 26.11. 1:00 0
Mi, 25.11. 19:00 0
Mi, 25.11. 13:00 0
Ortszeit Schneehöhe (cm)
Fr, 27.11. 7:30 0
Fr, 27.11. 7:20 0
Fr, 27.11. 7:10 0
Fr, 27.11. 7:00 0
Fr, 27.11. 6:50 0
Fr, 27.11. 6:40 0
Fr, 27.11. 6:30 0
Fr, 27.11. 6:00 0
Link zu dieser Seite / Seite empfehlen

Das Wetter in ...